sensor_id;sensor_type;location;lat;lon;timestamp;P1;durP1;ratioP1;P2;durP2;ratioP2
12484;SDS011;6307;46.804;11.580;2022-09-01T00:01:40;1.63;;;1.10;;
12484;SDS011;6307;46.804;11.580;2022-09-01T00:04:12;2.10;;;0.90;;
12484;SDS011;6307;46.804;11.580;2022-09-01T00:06:43;1.60;;;0.90;;
12484;SDS011;6307;46.804;11.580;2022-09-01T00:09:11;1.13;;;0.93;;
12484;SDS011;6307;46.804;11.580;2022-09-01T00:11:43;1.00;;;1.00;;
12484;SDS011;6307;46.804;11.580;2022-09-01T00:14:13;0.93;;;0.90;;
12484;SDS011;6307;46.804;11.580;2022-09-01T00:16:39;0.80;;;0.80;;
12484;SDS011;6307;46.804;11.580;2022-09-01T00:19:06;1.57;;;0.90;;
12484;SDS011;6307;46.804;11.580;2022-09-01T00:21:37;0.80;;;0.80;;
12484;SDS011;6307;46.804;11.580;2022-09-01T00:24:08;1.37;;;1.00;;
12484;SDS011;6307;46.804;11.580;2022-09-01T00:26:36;0.90;;;0.90;;
12484;SDS011;6307;46.804;11.580;2022-09-01T00:29:03;1.10;;;1.00;;
12484;SDS011;6307;46.804;11.580;2022-09-01T00:31:30;2.67;;;1.27;;
12484;SDS011;6307;46.804;11.580;2022-09-01T00:33:57;1.77;;;1.20;;
12484;SDS011;6307;46.804;11.580;2022-09-01T00:36:24;1.20;;;1.10;;
12484;SDS011;6307;46.804;11.580;2022-09-01T00:38:50;1.00;;;1.00;;
12484;SDS011;6307;46.804;11.580;2022-09-01T00:41:18;2.80;;;1.13;;
12484;SDS011;6307;46.804;11.580;2022-09-01T00:43:49;2.60;;;0.93;;
12484;SDS011;6307;46.804;11.580;2022-09-01T00:46:21;2.40;;;1.20;;
12484;SDS011;6307;46.804;11.580;2022-09-01T00:48:56;1.23;;;1.13;;
12484;SDS011;6307;46.804;11.580;2022-09-01T00:51:28;2.23;;;0.90;;
12484;SDS011;6307;46.804;11.580;2022-09-01T00:53:57;1.00;;;1.00;;
12484;SDS011;6307;46.804;11.580;2022-09-01T00:56:24;3.03;;;1.13;;
12484;SDS011;6307;46.804;11.580;2022-09-01T00:58:51;0.97;;;0.97;;
12484;SDS011;6307;46.804;11.580;2022-09-01T01:01:18;1.70;;;1.00;;
12484;SDS011;6307;46.804;11.580;2022-09-01T01:03:45;3.53;;;1.30;;
12484;SDS011;6307;46.804;11.580;2022-09-01T01:06:12;1.20;;;1.10;;
12484;SDS011;6307;46.804;11.580;2022-09-01T01:08:43;3.03;;;1.30;;
12484;SDS011;6307;46.804;11.580;2022-09-01T01:11:20;2.70;;;1.27;;
12484;SDS011;6307;46.804;11.580;2022-09-01T01:13:52;1.60;;;1.10;;
12484;SDS011;6307;46.804;11.580;2022-09-01T01:16:43;1.30;;;1.20;;
12484;SDS011;6307;46.804;11.580;2022-09-01T01:19:14;1.23;;;1.13;;
12484;SDS011;6307;46.804;11.580;2022-09-01T01:22:11;1.20;;;1.10;;
12484;SDS011;6307;46.804;11.580;2022-09-01T01:25:13;1.40;;;1.10;;
12484;SDS011;6307;46.804;11.580;2022-09-01T01:27:43;1.27;;;1.17;;
12484;SDS011;6307;46.804;11.580;2022-09-01T01:30:11;5.07;;;1.53;;
12484;SDS011;6307;46.804;11.580;2022-09-01T01:32:40;1.47;;;1.00;;
12484;SDS011;6307;46.804;11.580;2022-09-01T01:35:12;1.20;;;1.20;;
12484;SDS011;6307;46.804;11.580;2022-09-01T01:37:43;3.57;;;1.27;;
12484;SDS011;6307;46.804;11.580;2022-09-01T01:40:14;1.50;;;1.40;;
12484;SDS011;6307;46.804;11.580;2022-09-01T01:42:44;1.53;;;1.30;;
12484;SDS011;6307;46.804;11.580;2022-09-01T01:45:13;1.10;;;1.10;;
12484;SDS011;6307;46.804;11.580;2022-09-01T01:47:44;1.30;;;1.20;;
12484;SDS011;6307;46.804;11.580;2022-09-01T01:50:17;2.40;;;1.20;;
12484;SDS011;6307;46.804;11.580;2022-09-01T01:52:49;1.20;;;1.10;;
12484;SDS011;6307;46.804;11.580;2022-09-01T01:55:17;3.13;;;1.40;;
12484;SDS011;6307;46.804;11.580;2022-09-01T01:57:44;1.27;;;1.17;;
12484;SDS011;6307;46.804;11.580;2022-09-01T02:00:19;1.50;;;1.17;;
12484;SDS011;6307;46.804;11.580;2022-09-01T02:02:49;1.07;;;1.07;;
12484;SDS011;6307;46.804;11.580;2022-09-01T02:05:30;2.20;;;1.33;;
12484;SDS011;6307;46.804;11.580;2022-09-01T02:08:01;1.30;;;1.20;;
12484;SDS011;6307;46.804;11.580;2022-09-01T02:10:35;2.00;;;1.33;;
12484;SDS011;6307;46.804;11.580;2022-09-01T02:13:07;2.53;;;1.30;;
12484;SDS011;6307;46.804;11.580;2022-09-01T02:15:41;4.80;;;1.50;;
12484;SDS011;6307;46.804;11.580;2022-09-01T02:18:15;1.27;;;1.17;;
12484;SDS011;6307;46.804;11.580;2022-09-01T02:21:00;1.70;;;1.40;;
12484;SDS011;6307;46.804;11.580;2022-09-01T02:23:33;1.57;;;1.33;;
12484;SDS011;6307;46.804;11.580;2022-09-01T02:26:00;1.53;;;1.30;;
12484;SDS011;6307;46.804;11.580;2022-09-01T02:28:27;2.20;;;1.40;;
12484;SDS011;6307;46.804;11.580;2022-09-01T02:30:59;1.40;;;1.30;;
12484;SDS011;6307;46.804;11.580;2022-09-01T02:33:26;1.60;;;1.50;;
12484;SDS011;6307;46.804;11.580;2022-09-01T02:35:55;1.37;;;1.27;;
12484;SDS011;6307;46.804;11.580;2022-09-01T02:38:26;1.20;;;1.20;;
12484;SDS011;6307;46.804;11.580;2022-09-01T02:40:57;1.40;;;1.30;;
12484;SDS011;6307;46.804;11.580;2022-09-01T02:43:26;1.23;;;1.10;;
12484;SDS011;6307;46.804;11.580;2022-09-01T02:45:56;1.10;;;1.10;;
12484;SDS011;6307;46.804;11.580;2022-09-01T02:48:28;1.77;;;1.47;;
12484;SDS011;6307;46.804;11.580;2022-09-01T02:51:35;1.10;;;1.10;;
12484;SDS011;6307;46.804;11.580;2022-09-01T02:53:53;1.90;;;1.40;;
12484;SDS011;6307;46.804;11.580;2022-09-01T02:56:20;1.33;;;1.23;;
12484;SDS011;6307;46.804;11.580;2022-09-01T02:58:49;1.43;;;1.33;;
12484;SDS011;6307;46.804;11.580;2022-09-01T03:01:23;1.73;;;1.40;;
12484;SDS011;6307;46.804;11.580;2022-09-01T03:04:00;1.43;;;1.30;;
12484;SDS011;6307;46.804;11.580;2022-09-01T03:06:35;1.37;;;1.27;;
12484;SDS011;6307;46.804;11.580;2022-09-01T03:09:04;1.40;;;1.30;;
12484;SDS011;6307;46.804;11.580;2022-09-01T03:11:36;2.17;;;1.50;;
12484;SDS011;6307;46.804;11.580;2022-09-01T03:14:05;1.60;;;1.50;;
12484;SDS011;6307;46.804;11.580;2022-09-01T03:16:33;1.50;;;1.40;;
12484;SDS011;6307;46.804;11.580;2022-09-01T03:19:01;2.53;;;1.30;;
12484;SDS011;6307;46.804;11.580;2022-09-01T03:21:31;1.90;;;1.30;;
12484;SDS011;6307;46.804;11.580;2022-09-01T03:23:57;2.10;;;1.33;;
12484;SDS011;6307;46.804;11.580;2022-09-01T03:26:26;1.90;;;1.40;;
12484;SDS011;6307;46.804;11.580;2022-09-01T03:28:52;1.37;;;1.27;;
12484;SDS011;6307;46.804;11.580;2022-09-01T03:31:18;1.50;;;1.40;;
12484;SDS011;6307;46.804;11.580;2022-09-01T03:33:45;1.57;;;1.47;;
12484;SDS011;6307;46.804;11.580;2022-09-01T03:36:11;1.30;;;1.20;;
12484;SDS011;6307;46.804;11.580;2022-09-01T03:38:43;1.57;;;1.47;;
12484;SDS011;6307;46.804;11.580;2022-09-01T03:41:15;1.60;;;1.20;;
12484;SDS011;6307;46.804;11.580;2022-09-01T03:43:45;1.53;;;1.43;;
12484;SDS011;6307;46.804;11.580;2022-09-01T03:46:13;1.57;;;1.40;;
12484;SDS011;6307;46.804;11.580;2022-09-01T03:48:45;2.10;;;1.47;;
12484;SDS011;6307;46.804;11.580;2022-09-01T03:51:14;2.67;;;1.40;;
12484;SDS011;6307;46.804;11.580;2022-09-01T03:53:42;2.13;;;1.40;;
12484;SDS011;6307;46.804;11.580;2022-09-01T03:56:09;1.40;;;1.30;;
12484;SDS011;6307;46.804;11.580;2022-09-01T03:58:36;1.47;;;1.37;;
12484;SDS011;6307;46.804;11.580;2022-09-01T04:01:03;1.50;;;1.40;;
12484;SDS011;6307;46.804;11.580;2022-09-01T04:03:30;2.47;;;1.40;;
12484;SDS011;6307;46.804;11.580;2022-09-01T04:05:59;1.97;;;1.50;;
12484;SDS011;6307;46.804;11.580;2022-09-01T04:08:26;3.13;;;1.53;;
12484;SDS011;6307;46.804;11.580;2022-09-01T04:10:55;1.63;;;1.47;;
12484;SDS011;6307;46.804;11.580;2022-09-01T04:13:25;1.80;;;1.60;;
12484;SDS011;6307;46.804;11.580;2022-09-01T04:15:56;1.73;;;1.43;;
12484;SDS011;6307;46.804;11.580;2022-09-01T04:18:23;1.43;;;1.10;;
12484;SDS011;6307;46.804;11.580;2022-09-01T04:20:51;2.13;;;1.23;;
12484;SDS011;6307;46.804;11.580;2022-09-01T04:25:58;1.53;;;1.43;;
12484;SDS011;6307;46.804;11.580;2022-09-01T04:28:33;1.57;;;1.47;;
12484;SDS011;6307;46.804;11.580;2022-09-01T04:31:07;3.33;;;1.40;;
12484;SDS011;6307;46.804;11.580;2022-09-01T04:33:42;4.00;;;1.50;;
12484;SDS011;6307;46.804;11.580;2022-09-01T04:36:14;1.40;;;1.30;;
12484;SDS011;6307;46.804;11.580;2022-09-01T04:38:53;1.67;;;1.57;;
12484;SDS011;6307;46.804;11.580;2022-09-01T04:41:23;1.70;;;1.30;;
12484;SDS011;6307;46.804;11.580;2022-09-01T04:43:55;2.37;;;1.47;;
12484;SDS011;6307;46.804;11.580;2022-09-01T04:46:23;1.70;;;1.30;;
12484;SDS011;6307;46.804;11.580;2022-09-01T04:48:55;5.07;;;1.40;;
12484;SDS011;6307;46.804;11.580;2022-09-01T04:51:22;2.97;;;1.70;;
12484;SDS011;6307;46.804;11.580;2022-09-01T04:53:53;2.50;;;1.50;;
12484;SDS011;6307;46.804;11.580;2022-09-01T04:56:21;3.50;;;1.33;;
12484;SDS011;6307;46.804;11.580;2022-09-01T04:58:51;1.63;;;1.23;;
12484;SDS011;6307;46.804;11.580;2022-09-01T05:01:21;1.40;;;1.27;;
12484;SDS011;6307;46.804;11.580;2022-09-01T05:03:50;2.43;;;1.60;;
12484;SDS011;6307;46.804;11.580;2022-09-01T05:06:23;3.13;;;1.37;;
12484;SDS011;6307;46.804;11.580;2022-09-01T05:08:50;2.33;;;1.40;;
12484;SDS011;6307;46.804;11.580;2022-09-01T05:11:16;2.27;;;1.37;;
12484;SDS011;6307;46.804;11.580;2022-09-01T05:13:44;2.17;;;1.53;;
12484;SDS011;6307;46.804;11.580;2022-09-01T05:16:13;1.80;;;1.30;;
12484;SDS011;6307;46.804;11.580;2022-09-01T05:18:46;1.93;;;1.47;;
12484;SDS011;6307;46.804;11.580;2022-09-01T05:21:15;1.43;;;1.33;;
12484;SDS011;6307;46.804;11.580;2022-09-01T05:23:46;1.40;;;1.30;;
12484;SDS011;6307;46.804;11.580;2022-09-01T05:26:25;3.30;;;1.50;;
12484;SDS011;6307;46.804;11.580;2022-09-01T05:28:59;2.67;;;1.40;;
12484;SDS011;6307;46.804;11.580;2022-09-01T05:31:34;2.20;;;1.50;;
12484;SDS011;6307;46.804;11.580;2022-09-01T05:34:02;2.13;;;1.50;;
12484;SDS011;6307;46.804;11.580;2022-09-01T05:36:29;3.90;;;1.60;;
12484;SDS011;6307;46.804;11.580;2022-09-01T05:38:57;1.77;;;1.67;;
12484;SDS011;6307;46.804;11.580;2022-09-01T05:41:24;1.43;;;1.30;;
12484;SDS011;6307;46.804;11.580;2022-09-01T05:43:52;2.70;;;1.63;;
12484;SDS011;6307;46.804;11.580;2022-09-01T05:46:20;1.57;;;1.47;;
12484;SDS011;6307;46.804;11.580;2022-09-01T05:48:52;1.70;;;1.60;;
12484;SDS011;6307;46.804;11.580;2022-09-01T05:51:21;4.17;;;1.60;;
12484;SDS011;6307;46.804;11.580;2022-09-01T05:53:54;2.83;;;1.40;;
12484;SDS011;6307;46.804;11.580;2022-09-01T05:56:23;2.00;;;1.63;;
12484;SDS011;6307;46.804;11.580;2022-09-01T05:58:54;2.97;;;1.50;;
12484;SDS011;6307;46.804;11.580;2022-09-01T06:01:25;3.70;;;1.50;;
12484;SDS011;6307;46.804;11.580;2022-09-01T06:03:55;3.27;;;1.70;;
12484;SDS011;6307;46.804;11.580;2022-09-01T06:06:24;3.37;;;1.50;;
12484;SDS011;6307;46.804;11.580;2022-09-01T06:09:03;2.87;;;1.47;;
12484;SDS011;6307;46.804;11.580;2022-09-01T06:11:31;1.33;;;1.23;;
12484;SDS011;6307;46.804;11.580;2022-09-01T06:13:59;1.93;;;1.20;;
12484;SDS011;6307;46.804;11.580;2022-09-01T06:16:26;4.57;;;1.37;;
12484;SDS011;6307;46.804;11.580;2022-09-01T06:18:55;2.93;;;1.43;;
12484;SDS011;6307;46.804;11.580;2022-09-01T06:21:23;1.27;;;1.10;;
12484;SDS011;6307;46.804;11.580;2022-09-01T06:23:52;5.27;;;1.40;;
12484;SDS011;6307;46.804;11.580;2022-09-01T06:26:21;1.80;;;1.07;;
12484;SDS011;6307;46.804;11.580;2022-09-01T06:29:03;1.83;;;1.10;;
12484;SDS011;6307;46.804;11.580;2022-09-01T06:31:39;1.20;;;1.10;;
12484;SDS011;6307;46.804;11.580;2022-09-01T06:34:07;2.80;;;1.30;;
12484;SDS011;6307;46.804;11.580;2022-09-01T06:36:38;2.67;;;1.40;;
12484;SDS011;6307;46.804;11.580;2022-09-01T06:39:05;1.23;;;1.10;;
12484;SDS011;6307;46.804;11.580;2022-09-01T06:41:33;1.30;;;1.20;;
12484;SDS011;6307;46.804;11.580;2022-09-01T06:44:03;1.50;;;1.37;;
12484;SDS011;6307;46.804;11.580;2022-09-01T06:46:29;1.90;;;1.40;;
12484;SDS011;6307;46.804;11.580;2022-09-01T06:48:55;1.70;;;1.40;;
12484;SDS011;6307;46.804;11.580;2022-09-01T06:51:22;3.10;;;1.20;;
12484;SDS011;6307;46.804;11.580;2022-09-01T06:53:54;3.03;;;1.33;;
12484;SDS011;6307;46.804;11.580;2022-09-01T06:56:23;3.83;;;1.20;;
12484;SDS011;6307;46.804;11.580;2022-09-01T06:58:55;1.70;;;1.20;;
12484;SDS011;6307;46.804;11.580;2022-09-01T07:01:23;2.60;;;1.33;;
12484;SDS011;6307;46.804;11.580;2022-09-01T07:03:52;4.53;;;1.57;;
12484;SDS011;6307;46.804;11.580;2022-09-01T07:06:21;1.33;;;0.90;;
12484;SDS011;6307;46.804;11.580;2022-09-01T07:08:52;2.23;;;1.20;;
12484;SDS011;6307;46.804;11.580;2022-09-01T07:11:21;1.80;;;1.20;;
12484;SDS011;6307;46.804;11.580;2022-09-01T07:13:53;5.73;;;1.57;;
12484;SDS011;6307;46.804;11.580;2022-09-01T07:16:23;1.07;;;0.97;;
12484;SDS011;6307;46.804;11.580;2022-09-01T07:18:54;2.70;;;1.10;;
12484;SDS011;6307;46.804;11.580;2022-09-01T07:21:24;1.70;;;1.20;;
12484;SDS011;6307;46.804;11.580;2022-09-01T07:23:53;3.90;;;1.10;;
12484;SDS011;6307;46.804;11.580;2022-09-01T07:26:21;1.80;;;0.90;;
12484;SDS011;6307;46.804;11.580;2022-09-01T07:28:49;2.07;;;1.00;;
12484;SDS011;6307;46.804;11.580;2022-09-01T07:31:17;1.20;;;1.10;;
12484;SDS011;6307;46.804;11.580;2022-09-01T07:33:50;3.20;;;1.10;;
12484;SDS011;6307;46.804;11.580;2022-09-01T07:36:20;2.47;;;0.90;;
12484;SDS011;6307;46.804;11.580;2022-09-01T07:38:46;1.10;;;1.00;;
12484;SDS011;6307;46.804;11.580;2022-09-01T07:41:18;1.40;;;0.90;;
12484;SDS011;6307;46.804;11.580;2022-09-01T07:43:47;1.00;;;0.90;;
12484;SDS011;6307;46.804;11.580;2022-09-01T07:46:17;0.80;;;0.80;;
12484;SDS011;6307;46.804;11.580;2022-09-01T07:48:45;0.77;;;0.77;;
12484;SDS011;6307;46.804;11.580;2022-09-01T07:51:12;0.70;;;0.70;;
12484;SDS011;6307;46.804;11.580;2022-09-01T07:53:43;0.90;;;0.90;;
12484;SDS011;6307;46.804;11.580;2022-09-01T07:56:10;1.27;;;0.70;;
12484;SDS011;6307;46.804;11.580;2022-09-01T07:58:37;1.00;;;0.90;;
12484;SDS011;6307;46.804;11.580;2022-09-01T08:01:10;0.70;;;0.70;;
12484;SDS011;6307;46.804;11.580;2022-09-01T08:03:45;0.60;;;0.60;;
12484;SDS011;6307;46.804;11.580;2022-09-01T08:06:16;1.23;;;0.90;;
12484;SDS011;6307;46.804;11.580;2022-09-01T08:08:46;0.87;;;0.70;;
12484;SDS011;6307;46.804;11.580;2022-09-01T08:11:18;0.80;;;0.80;;
12484;SDS011;6307;46.804;11.580;2022-09-01T08:13:51;0.87;;;0.70;;
12484;SDS011;6307;46.804;11.580;2022-09-01T08:16:19;0.63;;;0.63;;
12484;SDS011;6307;46.804;11.580;2022-09-01T08:18:46;0.50;;;0.50;;
12484;SDS011;6307;46.804;11.580;2022-09-01T08:21:13;0.40;;;0.40;;
12484;SDS011;6307;46.804;11.580;2022-09-01T08:23:41;0.87;;;0.60;;
12484;SDS011;6307;46.804;11.580;2022-09-01T08:26:08;0.60;;;0.60;;
12484;SDS011;6307;46.804;11.580;2022-09-01T08:28:38;0.53;;;0.53;;
12484;SDS011;6307;46.804;11.580;2022-09-01T08:31:09;0.63;;;0.63;;
12484;SDS011;6307;46.804;11.580;2022-09-01T08:33:38;0.40;;;0.40;;
12484;SDS011;6307;46.804;11.580;2022-09-01T08:36:07;0.70;;;0.70;;
12484;SDS011;6307;46.804;11.580;2022-09-01T08:38:36;0.47;;;0.43;;
12484;SDS011;6307;46.804;11.580;2022-09-01T08:41:04;0.60;;;0.60;;
12484;SDS011;6307;46.804;11.580;2022-09-01T08:47:06;1.00;;;0.60;;
12484;SDS011;6307;46.804;11.580;2022-09-01T08:49:36;0.40;;;0.40;;
12484;SDS011;6307;46.804;11.580;2022-09-01T08:57:54;0.40;;;0.40;;
12484;SDS011;6307;46.804;11.580;2022-09-01T09:00:25;0.47;;;0.40;;
12484;SDS011;6307;46.804;11.580;2022-09-01T09:03:01;0.53;;;0.53;;
12484;SDS011;6307;46.804;11.580;2022-09-01T09:08:39;0.50;;;0.50;;
12484;SDS011;6307;46.804;11.580;2022-09-01T09:17:26;0.40;;;0.40;;
12484;SDS011;6307;46.804;11.580;2022-09-01T09:19:59;1.30;;;0.60;;
12484;SDS011;6307;46.804;11.580;2022-09-01T09:22:27;0.60;;;0.57;;
12484;SDS011;6307;46.804;11.580;2022-09-01T09:24:59;0.40;;;0.40;;
12484;SDS011;6307;46.804;11.580;2022-09-01T09:27:41;0.50;;;0.50;;
12484;SDS011;6307;46.804;11.580;2022-09-01T09:30:23;0.50;;;0.50;;
12484;SDS011;6307;46.804;11.580;2022-09-01T09:32:54;2.40;;;0.30;;
12484;SDS011;6307;46.804;11.580;2022-09-01T09:35:31;0.50;;;0.50;;
12484;SDS011;6307;46.804;11.580;2022-09-01T09:43:27;0.33;;;0.33;;
12484;SDS011;6307;46.804;11.580;2022-09-01T09:46:32;0.70;;;0.50;;
12484;SDS011;6307;46.804;11.580;2022-09-01T09:54:57;1.37;;;0.60;;
12484;SDS011;6307;46.804;11.580;2022-09-01T09:57:29;0.67;;;0.60;;
12484;SDS011;6307;46.804;11.580;2022-09-01T10:00:06;0.37;;;0.37;;
12484;SDS011;6307;46.804;11.580;2022-09-01T10:02:54;0.50;;;0.50;;
12484;SDS011;6307;46.804;11.580;2022-09-01T10:05:37;0.43;;;0.43;;
12484;SDS011;6307;46.804;11.580;2022-09-01T10:10:52;0.40;;;0.40;;
12484;SDS011;6307;46.804;11.580;2022-09-01T10:13:21;0.50;;;0.50;;
12484;SDS011;6307;46.804;11.580;2022-09-01T10:15:51;0.50;;;0.50;;
12484;SDS011;6307;46.804;11.580;2022-09-01T10:18:22;0.30;;;0.30;;
12484;SDS011;6307;46.804;11.580;2022-09-01T10:23:59;0.47;;;0.47;;
12484;SDS011;6307;46.804;11.580;2022-09-01T10:26:58;0.40;;;0.40;;
12484;SDS011;6307;46.804;11.580;2022-09-01T10:29:41;0.43;;;0.40;;
12484;SDS011;6307;46.804;11.580;2022-09-01T10:32:15;0.40;;;0.40;;
12484;SDS011;6307;46.804;11.580;2022-09-01T10:34:48;0.70;;;0.50;;
12484;SDS011;6307;46.804;11.580;2022-09-01T10:37:15;0.20;;;0.20;;
12484;SDS011;6307;46.804;11.580;2022-09-01T10:42:36;0.30;;;0.30;;
12484;SDS011;6307;46.804;11.580;2022-09-01T10:45:51;0.50;;;0.50;;
12484;SDS011;6307;46.804;11.580;2022-09-01T10:50:47;0.40;;;0.40;;
12484;SDS011;6307;46.804;11.580;2022-09-01T10:56:00;0.40;;;0.40;;
12484;SDS011;6307;46.804;11.580;2022-09-01T11:04:13;0.40;;;0.40;;
12484;SDS011;6307;46.804;11.580;2022-09-01T11:14:51;0.50;;;0.50;;
12484;SDS011;6307;46.804;11.580;2022-09-01T11:19:56;0.50;;;0.50;;
12484;SDS011;6307;46.804;11.580;2022-09-01T11:28:45;0.40;;;0.40;;
12484;SDS011;6307;46.804;11.580;2022-09-01T11:31:16;0.47;;;0.40;;
12484;SDS011;6307;46.804;11.580;2022-09-01T11:44:25;0.50;;;0.50;;
12484;SDS011;6307;46.804;11.580;2022-09-01T11:52:27;1.30;;;0.40;;
12484;SDS011;6307;46.804;11.580;2022-09-01T11:54:58;0.53;;;0.40;;
12484;SDS011;6307;46.804;11.580;2022-09-01T11:57:47;0.37;;;0.37;;
12484;SDS011;6307;46.804;11.580;2022-09-01T12:00:12;0.30;;;0.30;;
12484;SDS011;6307;46.804;11.580;2022-09-01T12:02:52;1.60;;;0.30;;
12484;SDS011;6307;46.804;11.580;2022-09-01T12:05:24;0.30;;;0.30;;
12484;SDS011;6307;46.804;11.580;2022-09-01T12:08:18;0.40;;;0.40;;
12484;SDS011;6307;46.804;11.580;2022-09-01T12:10:45;0.40;;;0.40;;
12484;SDS011;6307;46.804;11.580;2022-09-01T12:15:55;0.33;;;0.33;;
12484;SDS011;6307;46.804;11.580;2022-09-01T12:18:35;0.30;;;0.30;;
12484;SDS011;6307;46.804;11.580;2022-09-01T12:21:16;0.70;;;0.40;;
12484;SDS011;6307;46.804;11.580;2022-09-01T12:26:44;0.30;;;0.30;;
12484;SDS011;6307;46.804;11.580;2022-09-01T12:29:14;0.30;;;0.23;;
12484;SDS011;6307;46.804;11.580;2022-09-01T12:31:43;0.50;;;0.40;;
12484;SDS011;6307;46.804;11.580;2022-09-01T12:39:41;2.00;;;0.53;;
12484;SDS011;6307;46.804;11.580;2022-09-01T12:42:20;0.27;;;0.27;;
12484;SDS011;6307;46.804;11.580;2022-09-01T12:44:59;0.53;;;0.50;;
12484;SDS011;6307;46.804;11.580;2022-09-01T12:52:33;0.30;;;0.30;;
12484;SDS011;6307;46.804;11.580;2022-09-01T12:55:14;0.40;;;0.40;;
12484;SDS011;6307;46.804;11.580;2022-09-01T12:57:51;0.40;;;0.37;;
12484;SDS011;6307;46.804;11.580;2022-09-01T13:00:34;0.40;;;0.40;;
12484;SDS011;6307;46.804;11.580;2022-09-01T13:03:20;0.50;;;0.37;;
12484;SDS011;6307;46.804;11.580;2022-09-01T13:05:51;0.47;;;0.47;;
12484;SDS011;6307;46.804;11.580;2022-09-01T13:08:34;0.30;;;0.30;;
12484;SDS011;6307;46.804;11.580;2022-09-01T13:11:05;0.97;;;0.40;;
12484;SDS011;6307;46.804;11.580;2022-09-01T13:13:35;1.30;;;0.40;;
12484;SDS011;6307;46.804;11.580;2022-09-01T13:16:02;0.30;;;0.30;;
12484;SDS011;6307;46.804;11.580;2022-09-01T13:18:36;0.63;;;0.30;;
12484;SDS011;6307;46.804;11.580;2022-09-01T13:21:05;0.20;;;0.20;;
12484;SDS011;6307;46.804;11.580;2022-09-01T13:23:32;0.50;;;0.40;;
12484;SDS011;6307;46.804;11.580;2022-09-01T13:25:58;0.47;;;0.47;;
12484;SDS011;6307;46.804;11.580;2022-09-01T13:28:25;0.30;;;0.30;;
12484;SDS011;6307;46.804;11.580;2022-09-01T13:30:53;0.40;;;0.40;;
12484;SDS011;6307;46.804;11.580;2022-09-01T13:33:23;0.40;;;0.40;;
12484;SDS011;6307;46.804;11.580;2022-09-01T13:35:51;0.30;;;0.27;;
12484;SDS011;6307;46.804;11.580;2022-09-01T13:38:18;0.40;;;0.40;;
12484;SDS011;6307;46.804;11.580;2022-09-01T13:40:46;0.20;;;0.20;;
12484;SDS011;6307;46.804;11.580;2022-09-01T13:43:15;0.30;;;0.23;;
12484;SDS011;6307;46.804;11.580;2022-09-01T13:45:45;0.30;;;0.30;;
12484;SDS011;6307;46.804;11.580;2022-09-01T13:48:13;0.53;;;0.30;;
12484;SDS011;6307;46.804;11.580;2022-09-01T13:50:40;0.40;;;0.40;;
12484;SDS011;6307;46.804;11.580;2022-09-01T13:53:08;1.93;;;0.40;;
12484;SDS011;6307;46.804;11.580;2022-09-01T13:55:34;0.30;;;0.30;;
12484;SDS011;6307;46.804;11.580;2022-09-01T13:58:04;2.97;;;0.80;;
12484;SDS011;6307;46.804;11.580;2022-09-01T14:00:32;0.23;;;0.23;;
12484;SDS011;6307;46.804;11.580;2022-09-01T14:03:04;1.33;;;0.40;;
12484;SDS011;6307;46.804;11.580;2022-09-01T14:05:35;0.67;;;0.37;;
12484;SDS011;6307;46.804;11.580;2022-09-01T14:08:05;0.57;;;0.40;;
12484;SDS011;6307;46.804;11.580;2022-09-01T14:10:36;0.40;;;0.40;;
12484;SDS011;6307;46.804;11.580;2022-09-01T14:13:07;0.50;;;0.40;;
12484;SDS011;6307;46.804;11.580;2022-09-01T14:15:35;1.30;;;0.30;;
12484;SDS011;6307;46.804;11.580;2022-09-01T14:18:02;0.40;;;0.40;;
12484;SDS011;6307;46.804;11.580;2022-09-01T14:20:31;0.80;;;0.47;;
12484;SDS011;6307;46.804;11.580;2022-09-01T14:23:04;0.53;;;0.40;;
12484;SDS011;6307;46.804;11.580;2022-09-01T14:25:32;0.70;;;0.40;;
12484;SDS011;6307;46.804;11.580;2022-09-01T14:27:59;0.40;;;0.40;;
12484;SDS011;6307;46.804;11.580;2022-09-01T14:30:27;0.40;;;0.40;;
12484;SDS011;6307;46.804;11.580;2022-09-01T14:32:56;0.33;;;0.33;;
12484;SDS011;6307;46.804;11.580;2022-09-01T14:35:23;0.53;;;0.30;;
12484;SDS011;6307;46.804;11.580;2022-09-01T14:37:53;1.10;;;0.40;;
12484;SDS011;6307;46.804;11.580;2022-09-01T14:40:21;0.40;;;0.40;;
12484;SDS011;6307;46.804;11.580;2022-09-01T14:42:49;0.93;;;0.33;;
12484;SDS011;6307;46.804;11.580;2022-09-01T14:45:21;1.60;;;0.57;;
12484;SDS011;6307;46.804;11.580;2022-09-01T14:47:51;0.40;;;0.40;;
12484;SDS011;6307;46.804;11.580;2022-09-01T14:50:21;0.33;;;0.33;;
12484;SDS011;6307;46.804;11.580;2022-09-01T14:52:50;0.70;;;0.47;;
12484;SDS011;6307;46.804;11.580;2022-09-01T14:55:20;0.50;;;0.30;;
12484;SDS011;6307;46.804;11.580;2022-09-01T14:57:48;0.40;;;0.40;;
12484;SDS011;6307;46.804;11.580;2022-09-01T15:00:15;0.50;;;0.50;;
12484;SDS011;6307;46.804;11.580;2022-09-01T15:02:42;0.97;;;0.63;;
12484;SDS011;6307;46.804;11.580;2022-09-01T15:05:09;0.50;;;0.40;;
12484;SDS011;6307;46.804;11.580;2022-09-01T15:07:37;1.07;;;0.30;;
12484;SDS011;6307;46.804;11.580;2022-09-01T15:10:05;0.57;;;0.50;;
12484;SDS011;6307;46.804;11.580;2022-09-01T15:12:33;0.50;;;0.50;;
12484;SDS011;6307;46.804;11.580;2022-09-01T15:15:01;1.33;;;0.50;;
12484;SDS011;6307;46.804;11.580;2022-09-01T15:17:27;0.37;;;0.37;;
12484;SDS011;6307;46.804;11.580;2022-09-01T15:19:53;0.63;;;0.50;;
12484;SDS011;6307;46.804;11.580;2022-09-01T15:22:20;0.50;;;0.50;;
12484;SDS011;6307;46.804;11.580;2022-09-01T15:24:46;0.30;;;0.30;;
12484;SDS011;6307;46.804;11.580;2022-09-01T15:27:12;0.57;;;0.50;;
12484;SDS011;6307;46.804;11.580;2022-09-01T15:29:39;0.40;;;0.30;;
12484;SDS011;6307;46.804;11.580;2022-09-01T15:32:12;2.13;;;0.50;;
12484;SDS011;6307;46.804;11.580;2022-09-01T15:34:40;0.50;;;0.50;;
12484;SDS011;6307;46.804;11.580;2022-09-01T15:37:06;0.63;;;0.50;;
12484;SDS011;6307;46.804;11.580;2022-09-01T15:39:33;0.97;;;0.60;;
12484;SDS011;6307;46.804;11.580;2022-09-01T15:41:59;0.50;;;0.50;;
12484;SDS011;6307;46.804;11.580;2022-09-01T15:44:27;0.50;;;0.50;;
12484;SDS011;6307;46.804;11.580;2022-09-01T15:46:53;0.43;;;0.40;;
12484;SDS011;6307;46.804;11.580;2022-09-01T15:49:20;1.33;;;0.60;;
12484;SDS011;6307;46.804;11.580;2022-09-01T15:51:46;0.50;;;0.40;;
12484;SDS011;6307;46.804;11.580;2022-09-01T15:54:13;0.50;;;0.50;;
12484;SDS011;6307;46.804;11.580;2022-09-01T15:56:44;0.63;;;0.63;;
12484;SDS011;6307;46.804;11.580;2022-09-01T15:59:12;0.50;;;0.50;;
12484;SDS011;6307;46.804;11.580;2022-09-01T16:01:41;0.70;;;0.70;;
12484;SDS011;6307;46.804;11.580;2022-09-01T16:04:14;0.70;;;0.60;;
12484;SDS011;6307;46.804;11.580;2022-09-01T16:06:41;0.77;;;0.70;;
12484;SDS011;6307;46.804;11.580;2022-09-01T16:09:08;0.50;;;0.50;;
12484;SDS011;6307;46.804;11.580;2022-09-01T16:11:35;0.70;;;0.70;;
12484;SDS011;6307;46.804;11.580;2022-09-01T16:14:03;1.07;;;0.70;;
12484;SDS011;6307;46.804;11.580;2022-09-01T16:22:22;0.70;;;0.67;;
12484;SDS011;6307;46.804;11.580;2022-09-01T16:25:13;0.50;;;0.50;;
12484;SDS011;6307;46.804;11.580;2022-09-01T16:27:47;0.80;;;0.60;;
12484;SDS011;6307;46.804;11.580;2022-09-01T16:30:19;0.53;;;0.53;;
12484;SDS011;6307;46.804;11.580;2022-09-01T16:32:51;0.70;;;0.60;;
12484;SDS011;6307;46.804;11.580;2022-09-01T16:35:17;0.50;;;0.50;;
12484;SDS011;6307;46.804;11.580;2022-09-01T16:41:21;1.73;;;0.70;;
12484;SDS011;6307;46.804;11.580;2022-09-01T16:44:26;1.83;;;0.57;;
12484;SDS011;6307;46.804;11.580;2022-09-01T16:49:59;0.93;;;0.60;;
12484;SDS011;6307;46.804;11.580;2022-09-01T16:53:02;1.63;;;0.70;;
12484;SDS011;6307;46.804;11.580;2022-09-01T17:01:35;1.70;;;0.60;;
12484;SDS011;6307;46.804;11.580;2022-09-01T17:07:19;0.77;;;0.77;;
12484;SDS011;6307;46.804;11.580;2022-09-01T17:10:13;1.00;;;0.80;;
12484;SDS011;6307;46.804;11.580;2022-09-01T17:12:54;0.63;;;0.63;;
12484;SDS011;6307;46.804;11.580;2022-09-01T17:20:46;2.63;;;0.80;;